sensor_id;sensor_type;location;lat;lon;timestamp;P1;durP1;ratioP1;P2;durP2;ratioP2
51943;SDS011;37969;53.132;6.370;2023-05-10T00:00:43;15.55;;;13.95;;
51943;SDS011;37969;53.132;6.370;2023-05-10T00:03:09;14.70;;;13.13;;
51943;SDS011;37969;53.132;6.370;2023-05-10T00:05:35;15.43;;;13.85;;
51943;SDS011;37969;53.132;6.370;2023-05-10T00:08:01;16.90;;;13.88;;
51943;SDS011;37969;53.132;6.370;2023-05-10T00:10:28;14.60;;;13.10;;
51943;SDS011;37969;53.132;6.370;2023-05-10T00:12:54;14.95;;;13.30;;
51943;SDS011;37969;53.132;6.370;2023-05-10T00:15:20;16.08;;;14.35;;
51943;SDS011;37969;53.132;6.370;2023-05-10T00:17:46;16.23;;;13.20;;
51943;SDS011;37969;53.132;6.370;2023-05-10T00:20:12;16.10;;;13.50;;
51943;SDS011;37969;53.132;6.370;2023-05-10T00:22:38;12.50;;;11.27;;
51943;SDS011;37969;53.132;6.370;2023-05-10T00:25:05;13.20;;;11.15;;
51943;SDS011;37969;53.132;6.370;2023-05-10T00:27:31;17.85;;;12.30;;
51943;SDS011;37969;53.132;6.370;2023-05-10T00:29:57;13.00;;;11.60;;
51943;SDS011;37969;53.132;6.370;2023-05-10T00:32:23;12.95;;;11.50;;
51943;SDS011;37969;53.132;6.370;2023-05-10T00:34:50;14.07;;;12.18;;
51943;SDS011;37969;53.132;6.370;2023-05-10T00:37:16;15.40;;;13.77;;
51943;SDS011;37969;53.132;6.370;2023-05-10T00:39:42;16.58;;;13.98;;
51943;SDS011;37969;53.132;6.370;2023-05-10T00:42:08;15.98;;;14.27;;
51943;SDS011;37969;53.132;6.370;2023-05-10T00:44:35;16.42;;;14.70;;
51943;SDS011;37969;53.132;6.370;2023-05-10T00:47:01;20.63;;;16.02;;
51943;SDS011;37969;53.132;6.370;2023-05-10T00:49:27;20.58;;;16.35;;
51943;SDS011;37969;53.132;6.370;2023-05-10T00:51:54;20.83;;;16.98;;
51943;SDS011;37969;53.132;6.370;2023-05-10T00:54:20;21.45;;;17.50;;
51943;SDS011;37969;53.132;6.370;2023-05-10T00:56:46;23.38;;;19.13;;
51943;SDS011;37969;53.132;6.370;2023-05-10T00:59:14;26.40;;;19.17;;
51943;SDS011;37969;53.132;6.370;2023-05-10T01:01:42;25.05;;;18.88;;
51943;SDS011;37969;53.132;6.370;2023-05-10T01:04:08;30.33;;;20.65;;
51943;SDS011;37969;53.132;6.370;2023-05-10T01:06:35;28.63;;;21.15;;
51943;SDS011;37969;53.132;6.370;2023-05-10T01:09:01;37.83;;;21.95;;
51943;SDS011;37969;53.132;6.370;2023-05-10T01:11:27;30.27;;;21.88;;
51943;SDS011;37969;53.132;6.370;2023-05-10T01:13:55;29.13;;;21.50;;
51943;SDS011;37969;53.132;6.370;2023-05-10T01:16:22;29.70;;;22.63;;
51943;SDS011;37969;53.132;6.370;2023-05-10T01:18:48;25.58;;;20.02;;
51943;SDS011;37969;53.132;6.370;2023-05-10T01:23:55;22.23;;;18.85;;
51943;SDS011;37969;53.132;6.370;2023-05-10T01:31:18;24.77;;;19.52;;
51943;SDS011;37969;53.132;6.370;2023-05-10T01:33:51;23.60;;;19.13;;
51943;SDS011;37969;53.132;6.370;2023-05-10T01:36:21;22.70;;;18.05;;
51943;SDS011;37969;53.132;6.370;2023-05-10T01:38:57;18.55;;;16.05;;
51943;SDS011;37969;53.132;6.370;2023-05-10T01:41:28;20.65;;;17.08;;
51943;SDS011;37969;53.132;6.370;2023-05-10T01:46:35;17.08;;;14.45;;
51943;SDS011;37969;53.132;6.370;2023-05-10T01:51:31;21.23;;;15.43;;
51943;SDS011;37969;53.132;6.370;2023-05-10T01:54:02;19.50;;;15.70;;
51943;SDS011;37969;53.132;6.370;2023-05-10T01:56:31;21.02;;;16.42;;
51943;SDS011;37969;53.132;6.370;2023-05-10T01:58:59;24.58;;;18.02;;
51943;SDS011;37969;53.132;6.370;2023-05-10T02:01:26;22.02;;;16.92;;
51943;SDS011;37969;53.132;6.370;2023-05-10T02:03:52;25.15;;;17.75;;
51943;SDS011;37969;53.132;6.370;2023-05-10T02:06:19;23.02;;;17.80;;
51943;SDS011;37969;53.132;6.370;2023-05-10T02:08:46;23.60;;;17.55;;
51943;SDS011;37969;53.132;6.370;2023-05-10T02:11:13;26.92;;;18.83;;
51943;SDS011;37969;53.132;6.370;2023-05-10T02:13:39;34.83;;;19.25;;
51943;SDS011;37969;53.132;6.370;2023-05-10T02:16:07;26.10;;;18.30;;
51943;SDS011;37969;53.132;6.370;2023-05-10T02:18:33;33.10;;;20.42;;
51943;SDS011;37969;53.132;6.370;2023-05-10T02:21:01;31.63;;;20.75;;
51943;SDS011;37969;53.132;6.370;2023-05-10T02:23:27;34.38;;;21.27;;
51943;SDS011;37969;53.132;6.370;2023-05-10T02:25:54;37.05;;;23.35;;
51943;SDS011;37969;53.132;6.370;2023-05-10T02:28:21;35.40;;;22.58;;
51943;SDS011;37969;53.132;6.370;2023-05-10T02:30:48;45.75;;;24.60;;
51943;SDS011;37969;53.132;6.370;2023-05-10T02:33:14;34.75;;;22.58;;
51943;SDS011;37969;53.132;6.370;2023-05-10T02:35:40;43.95;;;25.08;;
51943;SDS011;37969;53.132;6.370;2023-05-10T02:38:07;40.45;;;25.45;;
51943;SDS011;37969;53.132;6.370;2023-05-10T02:40:33;45.83;;;26.67;;
51943;SDS011;37969;53.132;6.370;2023-05-10T02:43:01;52.28;;;27.20;;
51943;SDS011;37969;53.132;6.370;2023-05-10T02:45:29;53.72;;;28.88;;
51943;SDS011;37969;53.132;6.370;2023-05-10T02:47:56;56.13;;;31.27;;
51943;SDS011;37969;53.132;6.370;2023-05-10T02:50:22;50.90;;;30.08;;
51943;SDS011;37969;53.132;6.370;2023-05-10T02:52:51;52.95;;;29.17;;
51943;SDS011;37969;53.132;6.370;2023-05-10T02:55:18;54.03;;;31.52;;
51943;SDS011;37969;53.132;6.370;2023-05-10T02:57:48;57.83;;;31.75;;
51943;SDS011;37969;53.132;6.370;2023-05-10T03:00:16;64.93;;;33.55;;
51943;SDS011;37969;53.132;6.370;2023-05-10T03:02:42;75.05;;;34.40;;
51943;SDS011;37969;53.132;6.370;2023-05-10T03:05:08;71.90;;;34.03;;
51943;SDS011;37969;53.132;6.370;2023-05-10T03:07:34;68.45;;;33.22;;
51943;SDS011;37969;53.132;6.370;2023-05-10T03:10:00;74.25;;;35.33;;
51943;SDS011;37969;53.132;6.370;2023-05-10T03:12:31;73.22;;;33.97;;
51943;SDS011;37969;53.132;6.370;2023-05-10T03:15:02;68.80;;;33.03;;
51943;SDS011;37969;53.132;6.370;2023-05-10T03:17:30;74.65;;;32.90;;
51943;SDS011;37969;53.132;6.370;2023-05-10T03:19:58;91.00;;;36.42;;
51943;SDS011;37969;53.132;6.370;2023-05-10T03:22:31;65.07;;;30.70;;
51943;SDS011;37969;53.132;6.370;2023-05-10T03:24:57;63.05;;;31.85;;
51943;SDS011;37969;53.132;6.370;2023-05-10T03:27:23;63.65;;;31.42;;
51943;SDS011;37969;53.132;6.370;2023-05-10T03:29:51;70.57;;;34.22;;
51943;SDS011;37969;53.132;6.370;2023-05-10T03:32:18;69.60;;;33.35;;
51943;SDS011;37969;53.132;6.370;2023-05-10T03:34:44;65.95;;;32.72;;
51943;SDS011;37969;53.132;6.370;2023-05-10T03:37:10;60.63;;;32.47;;
51943;SDS011;37969;53.132;6.370;2023-05-10T03:39:37;54.25;;;29.60;;
51943;SDS011;37969;53.132;6.370;2023-05-10T03:42:03;55.83;;;28.27;;
51943;SDS011;37969;53.132;6.370;2023-05-10T03:44:29;50.78;;;29.30;;
51943;SDS011;37969;53.132;6.370;2023-05-10T03:46:56;54.50;;;28.42;;
51943;SDS011;37969;53.132;6.370;2023-05-10T03:49:22;56.55;;;29.08;;
51943;SDS011;37969;53.132;6.370;2023-05-10T03:51:48;53.70;;;30.55;;
51943;SDS011;37969;53.132;6.370;2023-05-10T03:54:14;50.55;;;27.90;;
51943;SDS011;37969;53.132;6.370;2023-05-10T03:56:41;45.08;;;26.52;;
51943;SDS011;37969;53.132;6.370;2023-05-10T03:59:07;44.40;;;26.13;;
51943;SDS011;37969;53.132;6.370;2023-05-10T04:01:34;43.83;;;25.83;;
51943;SDS011;37969;53.132;6.370;2023-05-10T04:04:00;40.85;;;25.23;;
51943;SDS011;37969;53.132;6.370;2023-05-10T04:06:26;44.05;;;26.00;;
51943;SDS011;37969;53.132;6.370;2023-05-10T04:08:52;47.28;;;27.83;;
51943;SDS011;37969;53.132;6.370;2023-05-10T04:11:18;47.20;;;28.58;;
51943;SDS011;37969;53.132;6.370;2023-05-10T04:13:47;59.05;;;29.77;;
51943;SDS011;37969;53.132;6.370;2023-05-10T04:16:13;31.52;;;21.25;;
51943;SDS011;37969;53.132;6.370;2023-05-10T04:18:39;37.42;;;23.52;;
51943;SDS011;37969;53.132;6.370;2023-05-10T04:21:10;44.88;;;25.17;;
51943;SDS011;37969;53.132;6.370;2023-05-10T04:23:37;37.60;;;24.17;;
51943;SDS011;37969;53.132;6.370;2023-05-10T04:26:03;41.35;;;26.13;;
51943;SDS011;37969;53.132;6.370;2023-05-10T04:28:30;46.33;;;25.92;;
51943;SDS011;37969;53.132;6.370;2023-05-10T04:31:02;31.73;;;21.05;;
51943;SDS011;37969;53.132;6.370;2023-05-10T04:33:29;20.85;;;13.85;;
51943;SDS011;37969;53.132;6.370;2023-05-10T04:35:55;13.85;;;10.65;;
51943;SDS011;37969;53.132;6.370;2023-05-10T04:38:21;12.48;;;9.27;;
51943;SDS011;37969;53.132;6.370;2023-05-10T04:40:47;10.07;;;8.65;;
51943;SDS011;37969;53.132;6.370;2023-05-10T04:43:13;10.18;;;9.10;;
51943;SDS011;37969;53.132;6.370;2023-05-10T04:45:39;10.32;;;8.43;;
51943;SDS011;37969;53.132;6.370;2023-05-10T04:48:06;9.43;;;8.30;;
51943;SDS011;37969;53.132;6.370;2023-05-10T04:50:32;8.13;;;7.10;;
51943;SDS011;37969;53.132;6.370;2023-05-10T04:52:58;11.63;;;8.13;;
51943;SDS011;37969;53.132;6.370;2023-05-10T04:55:24;8.00;;;7.20;;
51943;SDS011;37969;53.132;6.370;2023-05-10T04:57:52;7.43;;;6.60;;
51943;SDS011;37969;53.132;6.370;2023-05-10T05:00:18;8.93;;;7.70;;
51943;SDS011;37969;53.132;6.370;2023-05-10T05:02:44;9.50;;;7.85;;
51943;SDS011;37969;53.132;6.370;2023-05-10T05:05:11;9.68;;;8.23;;
51943;SDS011;37969;53.132;6.370;2023-05-10T05:07:37;9.70;;;8.38;;
51943;SDS011;37969;53.132;6.370;2023-05-10T05:10:04;12.52;;;9.40;;
51943;SDS011;37969;53.132;6.370;2023-05-10T05:12:31;12.30;;;8.23;;
51943;SDS011;37969;53.132;6.370;2023-05-10T05:14:57;17.75;;;10.55;;
51943;SDS011;37969;53.132;6.370;2023-05-10T05:17:23;17.77;;;13.35;;
51943;SDS011;37969;53.132;6.370;2023-05-10T05:19:49;22.42;;;13.68;;
51943;SDS011;37969;53.132;6.370;2023-05-10T05:22:15;25.33;;;14.00;;
51943;SDS011;37969;53.132;6.370;2023-05-10T05:24:41;18.77;;;13.35;;
51943;SDS011;37969;53.132;6.370;2023-05-10T05:27:07;16.98;;;12.57;;
51943;SDS011;37969;53.132;6.370;2023-05-10T05:29:34;18.13;;;13.60;;
51943;SDS011;37969;53.132;6.370;2023-05-10T05:32:00;17.13;;;10.57;;
51943;SDS011;37969;53.132;6.370;2023-05-10T05:34:26;19.98;;;12.50;;
51943;SDS011;37969;53.132;6.370;2023-05-10T05:36:52;21.40;;;11.32;;
51943;SDS011;37969;53.132;6.370;2023-05-10T05:39:19;24.65;;;15.45;;
51943;SDS011;37969;53.132;6.370;2023-05-10T05:41:45;25.63;;;15.65;;
51943;SDS011;37969;53.132;6.370;2023-05-10T05:44:11;22.30;;;13.43;;
51943;SDS011;37969;53.132;6.370;2023-05-10T05:46:37;32.33;;;17.95;;
51943;SDS011;37969;53.132;6.370;2023-05-10T05:49:03;32.70;;;18.65;;
51943;SDS011;37969;53.132;6.370;2023-05-10T05:51:30;33.83;;;18.65;;
51943;SDS011;37969;53.132;6.370;2023-05-10T05:53:56;37.85;;;20.60;;
51943;SDS011;37969;53.132;6.370;2023-05-10T05:56:23;42.72;;;20.75;;
51943;SDS011;37969;53.132;6.370;2023-05-10T05:58:50;32.25;;;19.05;;
51943;SDS011;37969;53.132;6.370;2023-05-10T06:01:16;27.50;;;15.73;;
51943;SDS011;37969;53.132;6.370;2023-05-10T06:03:43;27.27;;;17.38;;
51943;SDS011;37969;53.132;6.370;2023-05-10T06:06:09;20.15;;;13.48;;
51943;SDS011;37969;53.132;6.370;2023-05-10T06:08:35;21.98;;;14.63;;
51943;SDS011;37969;53.132;6.370;2023-05-10T06:11:01;22.38;;;15.65;;
51943;SDS011;37969;53.132;6.370;2023-05-10T06:13:29;20.63;;;15.10;;
51943;SDS011;37969;53.132;6.370;2023-05-10T06:15:58;23.10;;;15.93;;
51943;SDS011;37969;53.132;6.370;2023-05-10T06:18:24;22.60;;;14.65;;
51943;SDS011;37969;53.132;6.370;2023-05-10T06:20:50;21.27;;;14.60;;
51943;SDS011;37969;53.132;6.370;2023-05-10T06:23:17;10.88;;;9.00;;
51943;SDS011;37969;53.132;6.370;2023-05-10T06:25:43;9.10;;;7.15;;
51943;SDS011;37969;53.132;6.370;2023-05-10T06:28:09;7.78;;;6.13;;
51943;SDS011;37969;53.132;6.370;2023-05-10T06:30:35;4.60;;;4.20;;
51943;SDS011;37969;53.132;6.370;2023-05-10T06:33:02;4.93;;;4.53;;
51943;SDS011;37969;53.132;6.370;2023-05-10T06:35:28;3.45;;;3.25;;
51943;SDS011;37969;53.132;6.370;2023-05-10T06:37:55;3.50;;;3.17;;
51943;SDS011;37969;53.132;6.370;2023-05-10T06:40:21;4.05;;;3.75;;
51943;SDS011;37969;53.132;6.370;2023-05-10T06:42:47;3.30;;;3.10;;
51943;SDS011;37969;53.132;6.370;2023-05-10T06:45:14;2.08;;;1.98;;
51943;SDS011;37969;53.132;6.370;2023-05-10T06:47:41;3.15;;;2.95;;
51943;SDS011;37969;53.132;6.370;2023-05-10T06:50:07;2.90;;;2.70;;
51943;SDS011;37969;53.132;6.370;2023-05-10T06:52:34;2.90;;;2.58;;
51943;SDS011;37969;53.132;6.370;2023-05-10T06:55:00;2.85;;;2.53;;
51943;SDS011;37969;53.132;6.370;2023-05-10T06:57:26;3.50;;;3.17;;
51943;SDS011;37969;53.132;6.370;2023-05-10T06:59:52;3.58;;;3.38;;
51943;SDS011;37969;53.132;6.370;2023-05-10T07:02:20;4.45;;;3.53;;
51943;SDS011;37969;53.132;6.370;2023-05-10T07:04:47;5.03;;;4.63;;
51943;SDS011;37969;53.132;6.370;2023-05-10T07:07:13;5.90;;;5.30;;
51943;SDS011;37969;53.132;6.370;2023-05-10T07:09:39;6.80;;;6.20;;
51943;SDS011;37969;53.132;6.370;2023-05-10T07:12:06;7.40;;;6.70;;
51943;SDS011;37969;53.132;6.370;2023-05-10T07:14:32;7.18;;;6.55;;
51943;SDS011;37969;53.132;6.370;2023-05-10T07:16:58;7.28;;;6.68;;
51943;SDS011;37969;53.132;6.370;2023-05-10T07:19:24;8.20;;;7.50;;
51943;SDS011;37969;53.132;6.370;2023-05-10T07:21:50;10.07;;;9.07;;
51943;SDS011;37969;53.132;6.370;2023-05-10T07:24:17;7.88;;;7.07;;
51943;SDS011;37969;53.132;6.370;2023-05-10T07:26:43;9.70;;;8.85;;
51943;SDS011;37969;53.132;6.370;2023-05-10T07:29:09;9.30;;;8.40;;
51943;SDS011;37969;53.132;6.370;2023-05-10T07:31:35;9.48;;;8.52;;
51943;SDS011;37969;53.132;6.370;2023-05-10T07:34:02;8.45;;;7.68;;
51943;SDS011;37969;53.132;6.370;2023-05-10T07:36:28;10.30;;;8.80;;
51943;SDS011;37969;53.132;6.370;2023-05-10T07:38:54;8.70;;;7.90;;
51943;SDS011;37969;53.132;6.370;2023-05-10T07:41:22;9.50;;;8.27;;
51943;SDS011;37969;53.132;6.370;2023-05-10T07:43:48;9.35;;;8.50;;
51943;SDS011;37969;53.132;6.370;2023-05-10T07:46:14;12.88;;;9.50;;
51943;SDS011;37969;53.132;6.370;2023-05-10T07:48:40;11.20;;;10.10;;
51943;SDS011;37969;53.132;6.370;2023-05-10T07:51:07;11.85;;;10.07;;
51943;SDS011;37969;53.132;6.370;2023-05-10T07:53:34;13.77;;;10.15;;
51943;SDS011;37969;53.132;6.370;2023-05-10T07:56:19;8.75;;;7.85;;
51943;SDS011;37969;53.132;6.370;2023-05-10T07:58:46;9.43;;;7.57;;
51943;SDS011;37969;53.132;6.370;2023-05-10T08:01:12;8.65;;;7.75;;
51943;SDS011;37969;53.132;6.370;2023-05-10T08:03:38;7.43;;;6.60;;
51943;SDS011;37969;53.132;6.370;2023-05-10T08:06:05;8.88;;;6.60;;
51943;SDS011;37969;53.132;6.370;2023-05-10T08:08:31;7.85;;;7.00;;
51943;SDS011;37969;53.132;6.370;2023-05-10T08:10:57;9.63;;;6.97;;
51943;SDS011;37969;53.132;6.370;2023-05-10T08:13:23;7.78;;;6.43;;
51943;SDS011;37969;53.132;6.370;2023-05-10T08:15:49;10.52;;;6.95;;
51943;SDS011;37969;53.132;6.370;2023-05-10T08:18:18;9.93;;;6.90;;
51943;SDS011;37969;53.132;6.370;2023-05-10T08:20:44;8.52;;;6.65;;
51943;SDS011;37969;53.132;6.370;2023-05-10T08:23:12;7.47;;;6.68;;
51943;SDS011;37969;53.132;6.370;2023-05-10T08:25:38;8.48;;;6.85;;
51943;SDS011;37969;53.132;6.370;2023-05-10T08:28:05;11.18;;;7.63;;
51943;SDS011;37969;53.132;6.370;2023-05-10T08:30:31;9.43;;;7.20;;
51943;SDS011;37969;53.132;6.370;2023-05-10T08:32:57;7.75;;;7.03;;
51943;SDS011;37969;53.132;6.370;2023-05-10T08:35:23;11.25;;;7.57;;
51943;SDS011;37969;53.132;6.370;2023-05-10T08:37:50;10.27;;;7.97;;
51943;SDS011;37969;53.132;6.370;2023-05-10T08:40:16;10.07;;;8.05;;
51943;SDS011;37969;53.132;6.370;2023-05-10T08:43:00;8.67;;;7.23;;
51943;SDS011;37969;53.132;6.370;2023-05-10T08:45:27;11.85;;;9.63;;
51943;SDS011;37969;53.132;6.370;2023-05-10T08:47:57;12.15;;;8.52;;
51943;SDS011;37969;53.132;6.370;2023-05-10T08:50:23;9.70;;;8.70;;
51943;SDS011;37969;53.132;6.370;2023-05-10T08:52:50;14.05;;;9.25;;
51943;SDS011;37969;53.132;6.370;2023-05-10T08:55:18;12.00;;;9.35;;
51943;SDS011;37969;53.132;6.370;2023-05-10T08:57:44;13.05;;;9.55;;
51943;SDS011;37969;53.132;6.370;2023-05-10T09:00:11;11.15;;;7.35;;
51943;SDS011;37969;53.132;6.370;2023-05-10T09:02:38;6.60;;;5.85;;
51943;SDS011;37969;53.132;6.370;2023-05-10T09:05:04;5.50;;;4.43;;
51943;SDS011;37969;53.132;6.370;2023-05-10T09:07:30;6.63;;;5.53;;
51943;SDS011;37969;53.132;6.370;2023-05-10T09:09:57;6.57;;;5.93;;
51943;SDS011;37969;53.132;6.370;2023-05-10T09:12:23;7.53;;;5.65;;
51943;SDS011;37969;53.132;6.370;2023-05-10T09:14:50;7.50;;;6.47;;
51943;SDS011;37969;53.132;6.370;2023-05-10T09:17:18;11.38;;;6.72;;
51943;SDS011;37969;53.132;6.370;2023-05-10T09:19:44;7.22;;;6.53;;
51943;SDS011;37969;53.132;6.370;2023-05-10T09:22:10;8.10;;;7.22;;
51943;SDS011;37969;53.132;6.370;2023-05-10T09:24:37;8.40;;;6.70;;
51943;SDS011;37969;53.132;6.370;2023-05-10T09:27:07;9.80;;;6.53;;
51943;SDS011;37969;53.132;6.370;2023-05-10T09:29:41;8.20;;;7.32;;
51943;SDS011;37969;53.132;6.370;2023-05-10T09:32:07;7.70;;;6.82;;
51943;SDS011;37969;53.132;6.370;2023-05-10T09:34:33;8.55;;;6.53;;
51943;SDS011;37969;53.132;6.370;2023-05-10T09:37:01;11.05;;;7.90;;
51943;SDS011;37969;53.132;6.370;2023-05-10T09:39:31;12.52;;;8.38;;
51943;SDS011;37969;53.132;6.370;2023-05-10T09:41:57;8.45;;;7.10;;
51943;SDS011;37969;53.132;6.370;2023-05-10T09:44:25;9.50;;;7.45;;
51943;SDS011;37969;53.132;6.370;2023-05-10T09:46:51;11.27;;;7.53;;
51943;SDS011;37969;53.132;6.370;2023-05-10T09:49:18;11.80;;;7.65;;
51943;SDS011;37969;53.132;6.370;2023-05-10T09:51:45;9.32;;;8.00;;
51943;SDS011;37969;53.132;6.370;2023-05-10T09:54:12;8.95;;;7.63;;
51943;SDS011;37969;53.132;6.370;2023-05-10T09:56:39;8.85;;;7.47;;
51943;SDS011;37969;53.132;6.370;2023-05-10T09:59:07;8.77;;;7.90;;
51943;SDS011;37969;53.132;6.370;2023-05-10T10:01:33;10.00;;;8.00;;
51943;SDS011;37969;53.132;6.370;2023-05-10T10:04:02;11.25;;;8.27;;
51943;SDS011;37969;53.132;6.370;2023-05-10T10:06:29;10.07;;;7.82;;
51943;SDS011;37969;53.132;6.370;2023-05-10T10:09:00;10.68;;;7.88;;
51943;SDS011;37969;53.132;6.370;2023-05-10T10:11:26;10.73;;;7.38;;
51943;SDS011;37969;53.132;6.370;2023-05-10T10:13:53;9.30;;;7.30;;
51943;SDS011;37969;53.132;6.370;2023-05-10T10:16:20;6.55;;;5.05;;
51943;SDS011;37969;53.132;6.370;2023-05-10T10:18:46;7.30;;;5.63;;
51943;SDS011;37969;53.132;6.370;2023-05-10T10:21:13;8.10;;;5.55;;
51943;SDS011;37969;53.132;6.370;2023-05-10T10:23:39;6.78;;;5.15;;
51943;SDS011;37969;53.132;6.370;2023-05-10T10:26:05;8.23;;;4.88;;
51943;SDS011;37969;53.132;6.370;2023-05-10T10:31:11;5.93;;;5.32;;
51943;SDS011;37969;53.132;6.370;2023-05-10T10:33:46;6.38;;;5.25;;
51943;SDS011;37969;53.132;6.370;2023-05-10T10:36:17;5.70;;;5.10;;
51943;SDS011;37969;53.132;6.370;2023-05-10T10:41:29;8.45;;;6.43;;
51943;SDS011;37969;53.132;6.370;2023-05-10T10:49:23;8.27;;;7.28;;
51943;SDS011;37969;53.132;6.370;2023-05-10T10:54:34;10.10;;;7.47;;
51943;SDS011;37969;53.132;6.370;2023-05-10T10:57:10;6.85;;;6.25;;
51943;SDS011;37969;53.132;6.370;2023-05-10T10:59:41;7.95;;;6.28;;
51943;SDS011;37969;53.132;6.370;2023-05-10T11:02:08;8.40;;;7.28;;
51943;SDS011;37969;53.132;6.370;2023-05-10T11:04:41;13.02;;;8.57;;
51943;SDS011;37969;53.132;6.370;2023-05-10T11:07:17;11.13;;;8.55;;
51943;SDS011;37969;53.132;6.370;2023-05-10T11:09:44;11.40;;;9.00;;
51943;SDS011;37969;53.132;6.370;2023-05-10T11:12:10;9.98;;;8.43;;
51943;SDS011;37969;53.132;6.370;2023-05-10T11:14:36;10.25;;;8.98;;
51943;SDS011;37969;53.132;6.370;2023-05-10T11:17:21;12.93;;;9.48;;
51943;SDS011;37969;53.132;6.370;2023-05-10T11:20:07;11.60;;;9.43;;
51943;SDS011;37969;53.132;6.370;2023-05-10T11:22:51;11.80;;;9.73;;
51943;SDS011;37969;53.132;6.370;2023-05-10T11:25:17;12.90;;;10.88;;
51943;SDS011;37969;53.132;6.370;2023-05-10T11:27:44;15.27;;;10.70;;
51943;SDS011;37969;53.132;6.370;2023-05-10T11:30:10;14.93;;;11.52;;
51943;SDS011;37969;53.132;6.370;2023-05-10T11:32:37;13.98;;;11.23;;
51943;SDS011;37969;53.132;6.370;2023-05-10T11:35:07;15.13;;;11.60;;
51943;SDS011;37969;53.132;6.370;2023-05-10T11:40:00;17.77;;;10.85;;
51943;SDS011;37969;53.132;6.370;2023-05-10T11:42:27;15.10;;;10.60;;
51943;SDS011;37969;53.132;6.370;2023-05-10T11:44:53;11.95;;;9.48;;
51943;SDS011;37969;53.132;6.370;2023-05-10T11:47:20;13.48;;;9.90;;
51943;SDS011;37969;53.132;6.370;2023-05-10T11:49:46;13.00;;;8.60;;
51943;SDS011;37969;53.132;6.370;2023-05-10T11:52:12;12.82;;;8.77;;
51943;SDS011;37969;53.132;6.370;2023-05-10T11:54:45;14.32;;;9.40;;
51943;SDS011;37969;53.132;6.370;2023-05-10T11:57:17;10.45;;;7.80;;
51943;SDS011;37969;53.132;6.370;2023-05-10T11:59:45;10.05;;;8.73;;
51943;SDS011;37969;53.132;6.370;2023-05-10T12:02:12;12.68;;;8.38;;
51943;SDS011;37969;53.132;6.370;2023-05-10T12:04:38;12.23;;;8.55;;
51943;SDS011;37969;53.132;6.370;2023-05-10T12:07:04;10.85;;;8.88;;
51943;SDS011;37969;53.132;6.370;2023-05-10T12:09:31;10.32;;;8.23;;
51943;SDS011;37969;53.132;6.370;2023-05-10T12:11:57;11.25;;;9.45;;
51943;SDS011;37969;53.132;6.370;2023-05-10T12:14:23;11.15;;;9.48;;
51943;SDS011;37969;53.132;6.370;2023-05-10T12:16:49;12.75;;;9.63;;
51943;SDS011;37969;53.132;6.370;2023-05-10T12:19:19;12.32;;;10.00;;
51943;SDS011;37969;53.132;6.370;2023-05-10T12:21:46;11.55;;;8.18;;
51943;SDS011;37969;53.132;6.370;2023-05-10T12:24:13;10.85;;;8.27;;
51943;SDS011;37969;53.132;6.370;2023-05-10T12:29:12;10.30;;;7.35;;
51943;SDS011;37969;53.132;6.370;2023-05-10T12:31:50;11.38;;;7.85;;
51943;SDS011;37969;53.132;6.370;2023-05-10T12:34:31;9.82;;;6.88;;
51943;SDS011;37969;53.132;6.370;2023-05-10T12:36:58;12.68;;;8.25;;
51943;SDS011;37969;53.132;6.370;2023-05-10T12:39:25;10.05;;;8.05;;
51943;SDS011;37969;53.132;6.370;2023-05-10T12:41:51;9.82;;;7.80;;
51943;SDS011;37969;53.132;6.370;2023-05-10T12:44:17;12.98;;;8.60;;
51943;SDS011;37969;53.132;6.370;2023-05-10T12:46:43;12.48;;;8.57;;
51943;SDS011;37969;53.132;6.370;2023-05-10T12:49:09;14.25;;;8.70;;
51943;SDS011;37969;53.132;6.370;2023-05-10T12:51:35;11.65;;;8.70;;
51943;SDS011;37969;53.132;6.370;2023-05-10T12:54:02;15.73;;;9.18;;
51943;SDS011;37969;53.132;6.370;2023-05-10T12:56:28;13.73;;;8.55;;
51943;SDS011;37969;53.132;6.370;2023-05-10T12:58:55;12.80;;;8.70;;
51943;SDS011;37969;53.132;6.370;2023-05-10T13:01:21;10.75;;;8.63;;
51943;SDS011;37969;53.132;6.370;2023-05-10T13:03:47;9.25;;;8.32;;
51943;SDS011;37969;53.132;6.370;2023-05-10T13:06:13;9.70;;;8.57;;
51943;SDS011;37969;53.132;6.370;2023-05-10T13:08:39;9.90;;;7.80;;
51943;SDS011;37969;53.132;6.370;2023-05-10T13:11:05;10.10;;;7.90;;
51943;SDS011;37969;53.132;6.370;2023-05-10T13:13:31;9.70;;;7.75;;
51943;SDS011;37969;53.132;6.370;2023-05-10T13:15:58;9.95;;;7.82;;
51943;SDS011;37969;53.132;6.370;2023-05-10T13:18:24;13.32;;;8.60;;
51943;SDS011;37969;53.132;6.370;2023-05-10T13:20:51;12.43;;;8.68;;
51943;SDS011;37969;53.132;6.370;2023-05-10T13:23:17;10.88;;;8.40;;
51943;SDS011;37969;53.132;6.370;2023-05-10T13:25:43;12.88;;;8.50;;
51943;SDS011;37969;53.132;6.370;2023-05-10T13:28:09;11.02;;;8.10;;
51943;SDS011;37969;53.132;6.370;2023-05-10T13:30:35;12.00;;;8.07;;
51943;SDS011;37969;53.132;6.370;2023-05-10T13:33:02;11.68;;;8.65;;
51943;SDS011;37969;53.132;6.370;2023-05-10T13:35:28;8.63;;;6.15;;
51943;SDS011;37969;53.132;6.370;2023-05-10T13:37:54;10.85;;;6.20;;
51943;SDS011;37969;53.132;6.370;2023-05-10T13:40:22;6.95;;;5.35;;
51943;SDS011;37969;53.132;6.370;2023-05-10T13:42:48;6.13;;;5.50;;
51943;SDS011;37969;53.132;6.370;2023-05-10T13:45:15;7.97;;;5.93;;
51943;SDS011;37969;53.132;6.370;2023-05-10T13:47:41;11.00;;;5.85;;
51943;SDS011;37969;53.132;6.370;2023-05-10T13:50:07;9.50;;;6.65;;
51943;SDS011;37969;53.132;6.370;2023-05-10T13:52:33;11.68;;;7.20;;
51943;SDS011;37969;53.132;6.370;2023-05-10T13:55:00;9.40;;;7.38;;
51943;SDS011;37969;53.132;6.370;2023-05-10T13:57:26;8.43;;;7.15;;
51943;SDS011;37969;53.132;6.370;2023-05-10T13:59:53;10.32;;;7.95;;
51943;SDS011;37969;53.132;6.370;2023-05-10T14:02:20;8.93;;;7.70;;
51943;SDS011;37969;53.132;6.370;2023-05-10T14:04:46;10.45;;;8.57;;
51943;SDS011;37969;53.132;6.370;2023-05-10T14:07:13;10.60;;;8.32;;
51943;SDS011;37969;53.132;6.370;2023-05-10T14:09:39;9.95;;;8.48;;
51943;SDS011;37969;53.132;6.370;2023-05-10T14:12:05;10.52;;;8.73;;
51943;SDS011;37969;53.132;6.370;2023-05-10T14:14:31;13.63;;;8.57;;
51943;SDS011;37969;53.132;6.370;2023-05-10T14:16:57;12.90;;;9.02;;
51943;SDS011;37969;53.132;6.370;2023-05-10T14:19:24;11.48;;;9.13;;
51943;SDS011;37969;53.132;6.370;2023-05-10T14:21:51;11.23;;;8.90;;
51943;SDS011;37969;53.132;6.370;2023-05-10T14:24:18;9.43;;;8.45;;
51943;SDS011;37969;53.132;6.370;2023-05-10T14:26:44;12.07;;;9.75;;
51943;SDS011;37969;53.132;6.370;2023-05-10T14:29:10;13.25;;;10.25;;
51943;SDS011;37969;53.132;6.370;2023-05-10T14:31:36;14.40;;;10.25;;
51943;SDS011;37969;53.132;6.370;2023-05-10T14:34:02;10.80;;;9.23;;
51943;SDS011;37969;53.132;6.370;2023-05-10T14:36:28;13.20;;;9.30;;
51943;SDS011;37969;53.132;6.370;2023-05-10T14:38:54;11.00;;;9.95;;
51943;SDS011;37969;53.132;6.370;2023-05-10T14:41:21;13.10;;;10.13;;
51943;SDS011;37969;53.132;6.370;2023-05-10T14:43:48;10.70;;;9.23;;
51943;SDS011;37969;53.132;6.370;2023-05-10T14:46:14;12.95;;;10.18;;
51943;SDS011;37969;53.132;6.370;2023-05-10T14:48:40;11.68;;;9.30;;
51943;SDS011;37969;53.132;6.370;2023-05-10T14:51:07;9.82;;;8.77;;
51943;SDS011;37969;53.132;6.370;2023-05-10T14:53:33;11.85;;;8.80;;
51943;SDS011;37969;53.132;6.370;2023-05-10T14:55:59;12.32;;;8.43;;
51943;SDS011;37969;53.132;6.370;2023-05-10T14:58:27;13.15;;;9.23;;
51943;SDS011;37969;53.132;6.370;2023-05-10T15:00:53;10.93;;;8.13;;
51943;SDS011;37969;53.132;6.370;2023-05-10T15:03:19;9.65;;;8.43;;